sensor_id;sensor_type;location;lat;lon;timestamp;P1;durP1;ratioP1;P2;durP2;ratioP2
28437;SDS011;15667;52.376;9.708;2023-03-12T00:01:29;12.13;;;4.67;;
28437;SDS011;15667;52.376;9.708;2023-03-12T00:03:57;13.63;;;4.53;;
28437;SDS011;15667;52.376;9.708;2023-03-12T00:06:25;11.20;;;3.85;;
28437;SDS011;15667;52.376;9.708;2023-03-12T00:08:51;11.32;;;4.35;;
28437;SDS011;15667;52.376;9.708;2023-03-12T00:11:18;13.88;;;4.18;;
28437;SDS011;15667;52.376;9.708;2023-03-12T00:13:48;10.60;;;3.30;;
28437;SDS011;15667;52.376;9.708;2023-03-12T00:16:18;12.20;;;3.97;;
28437;SDS011;15667;52.376;9.708;2023-03-12T00:18:46;9.98;;;3.53;;
28437;SDS011;15667;52.376;9.708;2023-03-12T00:21:13;13.20;;;3.88;;
28437;SDS011;15667;52.376;9.708;2023-03-12T00:23:39;13.20;;;4.60;;
28437;SDS011;15667;52.376;9.708;2023-03-12T00:26:09;8.87;;;3.40;;
28437;SDS011;15667;52.376;9.708;2023-03-12T00:28:36;8.50;;;3.75;;
28437;SDS011;15667;52.376;9.708;2023-03-12T00:31:02;8.30;;;3.83;;
28437;SDS011;15667;52.376;9.708;2023-03-12T00:33:36;10.00;;;3.65;;
28437;SDS011;15667;52.376;9.708;2023-03-12T00:36:02;8.80;;;3.40;;
28437;SDS011;15667;52.376;9.708;2023-03-12T00:38:28;10.63;;;3.80;;
28437;SDS011;15667;52.376;9.708;2023-03-12T00:40:53;7.90;;;3.40;;
28437;SDS011;15667;52.376;9.708;2023-03-12T00:43:19;6.23;;;3.00;;
28437;SDS011;15667;52.376;9.708;2023-03-12T00:45:44;9.45;;;3.40;;
28437;SDS011;15667;52.376;9.708;2023-03-12T00:48:10;9.43;;;4.10;;
28437;SDS011;15667;52.376;9.708;2023-03-12T00:50:35;10.57;;;3.90;;
28437;SDS011;15667;52.376;9.708;2023-03-12T00:53:01;11.17;;;3.80;;
28437;SDS011;15667;52.376;9.708;2023-03-12T00:55:27;8.30;;;3.55;;
28437;SDS011;15667;52.376;9.708;2023-03-12T00:57:52;11.03;;;4.10;;
28437;SDS011;15667;52.376;9.708;2023-03-12T01:00:18;7.90;;;3.30;;
28437;SDS011;15667;52.376;9.708;2023-03-12T01:02:44;8.48;;;3.58;;
28437;SDS011;15667;52.376;9.708;2023-03-12T01:05:10;10.13;;;4.10;;
28437;SDS011;15667;52.376;9.708;2023-03-12T01:07:37;9.55;;;3.33;;
28437;SDS011;15667;52.376;9.708;2023-03-12T01:10:03;7.88;;;3.25;;
28437;SDS011;15667;52.376;9.708;2023-03-12T01:12:29;6.05;;;3.33;;
28437;SDS011;15667;52.376;9.708;2023-03-12T01:14:55;8.45;;;3.15;;
28437;SDS011;15667;52.376;9.708;2023-03-12T01:17:20;5.45;;;2.70;;
28437;SDS011;15667;52.376;9.708;2023-03-12T01:19:46;6.57;;;3.10;;
28437;SDS011;15667;52.376;9.708;2023-03-12T01:22:12;8.07;;;2.80;;
28437;SDS011;15667;52.376;9.708;2023-03-12T01:24:38;13.00;;;3.80;;
28437;SDS011;15667;52.376;9.708;2023-03-12T01:27:03;8.47;;;3.30;;
28437;SDS011;15667;52.376;9.708;2023-03-12T01:29:29;8.43;;;3.37;;
28437;SDS011;15667;52.376;9.708;2023-03-12T01:31:55;10.77;;;2.95;;
28437;SDS011;15667;52.376;9.708;2023-03-12T01:34:20;6.77;;;2.73;;
28437;SDS011;15667;52.376;9.708;2023-03-12T01:36:46;7.50;;;2.80;;
28437;SDS011;15667;52.376;9.708;2023-03-12T01:39:12;7.00;;;2.53;;
28437;SDS011;15667;52.376;9.708;2023-03-12T01:41:38;5.25;;;2.60;;
28437;SDS011;15667;52.376;9.708;2023-03-12T01:44:05;7.50;;;2.90;;
28437;SDS011;15667;52.376;9.708;2023-03-12T01:46:35;6.35;;;2.38;;
28437;SDS011;15667;52.376;9.708;2023-03-12T01:49:07;7.13;;;2.75;;
28437;SDS011;15667;52.376;9.708;2023-03-12T01:51:37;6.13;;;2.58;;
28437;SDS011;15667;52.376;9.708;2023-03-12T01:54:07;7.18;;;2.50;;
28437;SDS011;15667;52.376;9.708;2023-03-12T01:56:36;5.95;;;2.50;;
28437;SDS011;15667;52.376;9.708;2023-03-12T01:59:06;6.20;;;2.47;;
28437;SDS011;15667;52.376;9.708;2023-03-12T02:01:36;9.63;;;2.80;;
28437;SDS011;15667;52.376;9.708;2023-03-12T02:04:02;6.33;;;2.60;;
28437;SDS011;15667;52.376;9.708;2023-03-12T02:06:36;8.48;;;2.90;;
28437;SDS011;15667;52.376;9.708;2023-03-12T02:09:25;6.20;;;2.65;;
28437;SDS011;15667;52.376;9.708;2023-03-12T02:11:51;6.38;;;3.22;;
28437;SDS011;15667;52.376;9.708;2023-03-12T02:14:17;7.67;;;2.50;;
28437;SDS011;15667;52.376;9.708;2023-03-12T02:16:42;9.77;;;3.03;;
28437;SDS011;15667;52.376;9.708;2023-03-12T02:19:13;4.77;;;2.47;;
28437;SDS011;15667;52.376;9.708;2023-03-12T02:22:00;4.93;;;2.50;;
28437;SDS011;15667;52.376;9.708;2023-03-12T02:24:29;7.55;;;2.40;;
28437;SDS011;15667;52.376;9.708;2023-03-12T02:26:57;6.40;;;2.70;;
28437;SDS011;15667;52.376;9.708;2023-03-12T02:29:23;5.63;;;2.63;;
28437;SDS011;15667;52.376;9.708;2023-03-12T02:31:53;6.13;;;2.45;;
28437;SDS011;15667;52.376;9.708;2023-03-12T02:34:21;8.20;;;2.83;;
28437;SDS011;15667;52.376;9.708;2023-03-12T02:36:47;7.53;;;2.97;;
28437;SDS011;15667;52.376;9.708;2023-03-12T02:39:13;6.85;;;2.40;;
28437;SDS011;15667;52.376;9.708;2023-03-12T02:42:12;6.97;;;2.70;;
28437;SDS011;15667;52.376;9.708;2023-03-12T02:44:32;7.63;;;2.60;;
28437;SDS011;15667;52.376;9.708;2023-03-12T02:47:00;7.00;;;2.97;;
28437;SDS011;15667;52.376;9.708;2023-03-12T02:49:27;8.50;;;2.70;;
28437;SDS011;15667;52.376;9.708;2023-03-12T02:51:56;7.85;;;2.95;;
28437;SDS011;15667;52.376;9.708;2023-03-12T02:54:23;8.23;;;3.00;;
28437;SDS011;15667;52.376;9.708;2023-03-12T02:56:49;6.93;;;2.90;;
28437;SDS011;15667;52.376;9.708;2023-03-12T02:59:16;7.25;;;2.80;;
28437;SDS011;15667;52.376;9.708;2023-03-12T03:01:45;11.07;;;3.60;;
28437;SDS011;15667;52.376;9.708;2023-03-12T03:04:11;12.77;;;3.97;;
28437;SDS011;15667;52.376;9.708;2023-03-12T03:06:38;14.40;;;5.60;;
28437;SDS011;15667;52.376;9.708;2023-03-12T03:09:06;11.57;;;4.55;;
28437;SDS011;15667;52.376;9.708;2023-03-12T03:11:31;11.07;;;3.90;;
28437;SDS011;15667;52.376;9.708;2023-03-12T03:13:57;24.90;;;8.27;;
28437;SDS011;15667;52.376;9.708;2023-03-12T03:16:23;12.93;;;5.00;;
28437;SDS011;15667;52.376;9.708;2023-03-12T03:18:49;12.60;;;4.53;;
28437;SDS011;15667;52.376;9.708;2023-03-12T03:21:15;11.77;;;4.88;;
28437;SDS011;15667;52.376;9.708;2023-03-12T03:23:42;16.77;;;4.18;;
28437;SDS011;15667;52.376;9.708;2023-03-12T03:26:09;9.40;;;3.88;;
28437;SDS011;15667;52.376;9.708;2023-03-12T03:28:35;9.17;;;3.60;;
28437;SDS011;15667;52.376;9.708;2023-03-12T03:31:00;7.82;;;3.80;;
28437;SDS011;15667;52.376;9.708;2023-03-12T03:33:30;6.45;;;3.38;;
28437;SDS011;15667;52.376;9.708;2023-03-12T03:35:57;8.43;;;3.65;;
28437;SDS011;15667;52.376;9.708;2023-03-12T03:38:24;7.40;;;3.50;;
28437;SDS011;15667;52.376;9.708;2023-03-12T03:40:50;8.57;;;3.38;;
28437;SDS011;15667;52.376;9.708;2023-03-12T03:43:16;11.43;;;4.03;;
28437;SDS011;15667;52.376;9.708;2023-03-12T03:45:42;8.95;;;3.92;;
28437;SDS011;15667;52.376;9.708;2023-03-12T03:48:09;8.48;;;3.65;;
28437;SDS011;15667;52.376;9.708;2023-03-12T03:50:36;10.75;;;3.80;;
28437;SDS011;15667;52.376;9.708;2023-03-12T03:53:03;9.45;;;4.00;;
28437;SDS011;15667;52.376;9.708;2023-03-12T03:55:29;10.80;;;4.17;;
28437;SDS011;15667;52.376;9.708;2023-03-12T03:57:55;7.43;;;3.70;;
28437;SDS011;15667;52.376;9.708;2023-03-12T04:00:20;8.03;;;3.67;;
28437;SDS011;15667;52.376;9.708;2023-03-12T04:02:46;12.77;;;4.20;;
28437;SDS011;15667;52.376;9.708;2023-03-12T04:05:12;10.05;;;4.13;;
28437;SDS011;15667;52.376;9.708;2023-03-12T04:07:39;11.30;;;4.88;;
28437;SDS011;15667;52.376;9.708;2023-03-12T04:10:05;9.02;;;4.50;;
28437;SDS011;15667;52.376;9.708;2023-03-12T04:12:31;16.15;;;5.07;;
28437;SDS011;15667;52.376;9.708;2023-03-12T04:14:57;10.07;;;4.28;;
28437;SDS011;15667;52.376;9.708;2023-03-12T04:17:22;8.97;;;4.37;;
28437;SDS011;15667;52.376;9.708;2023-03-12T04:19:48;12.90;;;5.30;;
28437;SDS011;15667;52.376;9.708;2023-03-12T04:22:14;18.50;;;7.83;;
28437;SDS011;15667;52.376;9.708;2023-03-12T04:24:40;14.98;;;5.97;;
28437;SDS011;15667;52.376;9.708;2023-03-12T04:27:05;14.25;;;5.93;;
28437;SDS011;15667;52.376;9.708;2023-03-12T04:29:31;15.07;;;6.60;;
28437;SDS011;15667;52.376;9.708;2023-03-12T04:31:57;15.00;;;7.40;;
28437;SDS011;15667;52.376;9.708;2023-03-12T04:34:22;11.37;;;4.40;;
28437;SDS011;15667;52.376;9.708;2023-03-12T04:36:48;8.10;;;4.00;;
28437;SDS011;15667;52.376;9.708;2023-03-12T04:39:17;8.93;;;4.50;;
28437;SDS011;15667;52.376;9.708;2023-03-12T04:41:43;9.73;;;3.90;;
28437;SDS011;15667;52.376;9.708;2023-03-12T04:44:09;10.98;;;4.13;;
28437;SDS011;15667;52.376;9.708;2023-03-12T04:46:35;8.63;;;3.97;;
28437;SDS011;15667;52.376;9.708;2023-03-12T04:49:01;7.50;;;4.00;;
28437;SDS011;15667;52.376;9.708;2023-03-12T04:51:27;10.05;;;3.95;;
28437;SDS011;15667;52.376;9.708;2023-03-12T04:53:53;12.00;;;4.15;;
28437;SDS011;15667;52.376;9.708;2023-03-12T04:56:19;13.65;;;4.10;;
28437;SDS011;15667;52.376;9.708;2023-03-12T04:58:45;7.87;;;4.00;;
28437;SDS011;15667;52.376;9.708;2023-03-12T05:01:15;8.47;;;3.83;;
28437;SDS011;15667;52.376;9.708;2023-03-12T05:03:51;8.23;;;4.07;;
28437;SDS011;15667;52.376;9.708;2023-03-12T05:06:17;8.23;;;4.30;;
28437;SDS011;15667;52.376;9.708;2023-03-12T05:08:44;9.18;;;3.75;;
28437;SDS011;15667;52.376;9.708;2023-03-12T05:11:10;8.00;;;3.90;;
28437;SDS011;15667;52.376;9.708;2023-03-12T05:13:36;8.82;;;3.67;;
28437;SDS011;15667;52.376;9.708;2023-03-12T05:16:02;9.87;;;4.07;;
28437;SDS011;15667;52.376;9.708;2023-03-12T05:18:27;9.47;;;3.70;;
28437;SDS011;15667;52.376;9.708;2023-03-12T05:20:57;10.93;;;3.83;;
28437;SDS011;15667;52.376;9.708;2023-03-12T05:23:27;6.85;;;3.45;;
28437;SDS011;15667;52.376;9.708;2023-03-12T05:25:53;9.68;;;3.63;;
28437;SDS011;15667;52.376;9.708;2023-03-12T05:28:19;8.57;;;3.50;;
28437;SDS011;15667;52.376;9.708;2023-03-12T05:30:45;7.40;;;3.38;;
28437;SDS011;15667;52.376;9.708;2023-03-12T05:33:11;8.05;;;3.70;;
28437;SDS011;15667;52.376;9.708;2023-03-12T05:35:36;9.57;;;3.20;;
28437;SDS011;15667;52.376;9.708;2023-03-12T05:38:02;7.60;;;3.60;;
28437;SDS011;15667;52.376;9.708;2023-03-12T05:40:28;8.73;;;3.60;;
28437;SDS011;15667;52.376;9.708;2023-03-12T05:42:54;7.78;;;3.50;;
28437;SDS011;15667;52.376;9.708;2023-03-12T05:45:19;7.70;;;3.50;;
28437;SDS011;15667;52.376;9.708;2023-03-12T05:47:45;8.60;;;3.60;;
28437;SDS011;15667;52.376;9.708;2023-03-12T05:50:11;7.90;;;3.50;;
28437;SDS011;15667;52.376;9.708;2023-03-12T05:52:36;9.17;;;3.30;;
28437;SDS011;15667;52.376;9.708;2023-03-12T05:55:02;10.30;;;3.70;;
28437;SDS011;15667;52.376;9.708;2023-03-12T05:57:28;11.33;;;3.67;;
28437;SDS011;15667;52.376;9.708;2023-03-12T05:59:54;7.83;;;3.20;;
28437;SDS011;15667;52.376;9.708;2023-03-12T06:02:19;7.67;;;4.10;;
28437;SDS011;15667;52.376;9.708;2023-03-12T06:04:45;10.65;;;3.67;;
28437;SDS011;15667;52.376;9.708;2023-03-12T06:07:11;6.13;;;3.40;;
28437;SDS011;15667;52.376;9.708;2023-03-12T06:09:36;10.02;;;3.65;;
28437;SDS011;15667;52.376;9.708;2023-03-12T06:12:02;9.03;;;3.70;;
28437;SDS011;15667;52.376;9.708;2023-03-12T06:14:28;8.90;;;4.10;;
28437;SDS011;15667;52.376;9.708;2023-03-12T06:16:53;8.30;;;3.37;;
28437;SDS011;15667;52.376;9.708;2023-03-12T06:19:19;9.70;;;3.57;;
28437;SDS011;15667;52.376;9.708;2023-03-12T06:21:48;9.18;;;3.72;;
28437;SDS011;15667;52.376;9.708;2023-03-12T06:24:14;8.32;;;3.67;;
28437;SDS011;15667;52.376;9.708;2023-03-12T06:26:39;11.15;;;3.63;;
28437;SDS011;15667;52.376;9.708;2023-03-12T06:29:05;7.97;;;3.35;;
28437;SDS011;15667;52.376;9.708;2023-03-12T06:31:31;7.35;;;3.40;;
28437;SDS011;15667;52.376;9.708;2023-03-12T06:33:56;7.90;;;3.30;;
28437;SDS011;15667;52.376;9.708;2023-03-12T06:36:22;11.30;;;4.30;;
28437;SDS011;15667;52.376;9.708;2023-03-12T06:38:48;8.27;;;3.90;;
28437;SDS011;15667;52.376;9.708;2023-03-12T06:41:15;6.63;;;3.37;;
28437;SDS011;15667;52.376;9.708;2023-03-12T06:43:42;11.70;;;3.75;;
28437;SDS011;15667;52.376;9.708;2023-03-12T06:46:09;7.38;;;3.47;;
28437;SDS011;15667;52.376;9.708;2023-03-12T06:48:37;8.17;;;3.63;;
28437;SDS011;15667;52.376;9.708;2023-03-12T06:51:05;8.13;;;3.53;;
28437;SDS011;15667;52.376;9.708;2023-03-12T06:53:32;8.25;;;3.72;;
28437;SDS011;15667;52.376;9.708;2023-03-12T06:55:58;6.20;;;3.50;;
28437;SDS011;15667;52.376;9.708;2023-03-12T06:58:24;8.13;;;3.50;;
28437;SDS011;15667;52.376;9.708;2023-03-12T07:00:50;10.20;;;3.67;;
28437;SDS011;15667;52.376;9.708;2023-03-12T07:03:16;9.85;;;3.50;;
28437;SDS011;15667;52.376;9.708;2023-03-12T07:05:42;8.05;;;3.47;;
28437;SDS011;15667;52.376;9.708;2023-03-12T07:08:09;6.65;;;3.20;;
28437;SDS011;15667;52.376;9.708;2023-03-12T07:10:36;6.55;;;3.38;;
28437;SDS011;15667;52.376;9.708;2023-03-12T07:13:01;8.73;;;3.33;;
28437;SDS011;15667;52.376;9.708;2023-03-12T07:15:27;8.00;;;3.50;;
28437;SDS011;15667;52.376;9.708;2023-03-12T07:17:53;7.32;;;3.28;;
28437;SDS011;15667;52.376;9.708;2023-03-12T07:20:18;7.80;;;3.30;;
28437;SDS011;15667;52.376;9.708;2023-03-12T07:22:45;9.57;;;3.00;;
28437;SDS011;15667;52.376;9.708;2023-03-12T07:25:10;8.10;;;3.63;;
28437;SDS011;15667;52.376;9.708;2023-03-12T07:27:36;8.93;;;3.20;;
28437;SDS011;15667;52.376;9.708;2023-03-12T07:30:02;6.33;;;3.20;;
28437;SDS011;15667;52.376;9.708;2023-03-12T07:32:28;4.43;;;2.90;;
28437;SDS011;15667;52.376;9.708;2023-03-12T07:34:54;7.68;;;3.53;;
28437;SDS011;15667;52.376;9.708;2023-03-12T07:37:20;7.07;;;3.30;;
28437;SDS011;15667;52.376;9.708;2023-03-12T07:39:46;7.80;;;2.70;;
28437;SDS011;15667;52.376;9.708;2023-03-12T07:42:15;10.15;;;3.33;;
28437;SDS011;15667;52.376;9.708;2023-03-12T07:44:40;6.70;;;2.75;;
28437;SDS011;15667;52.376;9.708;2023-03-12T07:47:06;5.97;;;2.77;;
28437;SDS011;15667;52.376;9.708;2023-03-12T07:49:32;5.88;;;2.90;;
28437;SDS011;15667;52.376;9.708;2023-03-12T07:51:57;8.90;;;2.90;;
28437;SDS011;15667;52.376;9.708;2023-03-12T07:54:23;6.63;;;2.90;;
28437;SDS011;15667;52.376;9.708;2023-03-12T07:56:54;9.23;;;3.47;;
28437;SDS011;15667;52.376;9.708;2023-03-12T07:59:20;9.48;;;3.30;;
28437;SDS011;15667;52.376;9.708;2023-03-12T08:01:50;7.13;;;2.90;;
28437;SDS011;15667;52.376;9.708;2023-03-12T08:04:16;7.13;;;2.73;;
28437;SDS011;15667;52.376;9.708;2023-03-12T08:06:42;8.27;;;2.90;;
28437;SDS011;15667;52.376;9.708;2023-03-12T08:09:08;8.55;;;2.95;;
28437;SDS011;15667;52.376;9.708;2023-03-12T08:11:33;7.35;;;2.83;;
28437;SDS011;15667;52.376;9.708;2023-03-12T08:14:00;4.35;;;2.35;;
28437;SDS011;15667;52.376;9.708;2023-03-12T08:16:32;4.05;;;2.40;;
28437;SDS011;15667;52.376;9.708;2023-03-12T08:18:58;7.17;;;2.57;;
28437;SDS011;15667;52.376;9.708;2023-03-12T08:21:23;6.30;;;2.70;;
28437;SDS011;15667;52.376;9.708;2023-03-12T08:23:49;7.70;;;2.78;;
28437;SDS011;15667;52.376;9.708;2023-03-12T08:26:15;7.07;;;2.58;;
28437;SDS011;15667;52.376;9.708;2023-03-12T08:28:41;6.32;;;2.50;;
28437;SDS011;15667;52.376;9.708;2023-03-12T08:31:06;4.97;;;2.53;;
28437;SDS011;15667;52.376;9.708;2023-03-12T08:33:33;9.10;;;2.77;;
28437;SDS011;15667;52.376;9.708;2023-03-12T08:35:59;5.17;;;2.87;;
28437;SDS011;15667;52.376;9.708;2023-03-12T08:38:25;7.70;;;2.80;;
28437;SDS011;15667;52.376;9.708;2023-03-12T08:41:06;9.70;;;2.60;;
28437;SDS011;15667;52.376;9.708;2023-03-12T08:43:32;6.68;;;2.80;;
28437;SDS011;15667;52.376;9.708;2023-03-12T08:45:59;8.93;;;3.40;;
28437;SDS011;15667;52.376;9.708;2023-03-12T08:48:29;10.25;;;2.95;;
28437;SDS011;15667;52.376;9.708;2023-03-12T08:50:59;8.02;;;2.35;;
28437;SDS011;15667;52.376;9.708;2023-03-12T08:53:30;7.63;;;2.78;;
28437;SDS011;15667;52.376;9.708;2023-03-12T08:55:56;8.03;;;2.87;;
28437;SDS011;15667;52.376;9.708;2023-03-12T08:58:22;4.93;;;2.50;;
28437;SDS011;15667;52.376;9.708;2023-03-12T09:00:49;5.63;;;2.47;;
28437;SDS011;15667;52.376;9.708;2023-03-12T09:03:18;7.30;;;2.80;;
28437;SDS011;15667;52.376;9.708;2023-03-12T09:05:45;11.80;;;2.90;;
28437;SDS011;15667;52.376;9.708;2023-03-12T09:08:12;8.50;;;3.20;;
28437;SDS011;15667;52.376;9.708;2023-03-12T09:10:46;10.40;;;3.05;;
28437;SDS011;15667;52.376;9.708;2023-03-12T09:13:15;8.55;;;2.72;;
28437;SDS011;15667;52.376;9.708;2023-03-12T09:15:41;7.47;;;2.42;;
28437;SDS011;15667;52.376;9.708;2023-03-12T09:18:07;11.30;;;2.60;;
28437;SDS011;15667;52.376;9.708;2023-03-12T09:20:35;7.40;;;2.70;;
28437;SDS011;15667;52.376;9.708;2023-03-12T09:23:04;7.07;;;2.72;;
28437;SDS011;15667;52.376;9.708;2023-03-12T09:25:30;5.93;;;2.20;;
28437;SDS011;15667;52.376;9.708;2023-03-12T09:27:55;8.10;;;2.60;;
28437;SDS011;15667;52.376;9.708;2023-03-12T09:30:21;7.47;;;2.53;;
28437;SDS011;15667;52.376;9.708;2023-03-12T09:32:50;7.20;;;2.60;;
28437;SDS011;15667;52.376;9.708;2023-03-12T09:35:15;7.35;;;2.40;;
28437;SDS011;15667;52.376;9.708;2023-03-12T09:37:41;6.55;;;2.58;;
28437;SDS011;15667;52.376;9.708;2023-03-12T09:40:10;7.50;;;2.23;;
28437;SDS011;15667;52.376;9.708;2023-03-12T09:42:42;6.75;;;2.53;;
28437;SDS011;15667;52.376;9.708;2023-03-12T09:45:21;7.00;;;2.40;;
28437;SDS011;15667;52.376;9.708;2023-03-12T09:48:16;8.17;;;2.40;;
28437;SDS011;15667;52.376;9.708;2023-03-12T09:50:57;9.00;;;2.40;;
28437;SDS011;15667;52.376;9.708;2023-03-12T09:53:36;7.22;;;2.30;;
28437;SDS011;15667;52.376;9.708;2023-03-12T09:56:20;7.03;;;2.50;;
28437;SDS011;15667;52.376;9.708;2023-03-12T09:58:47;8.02;;;2.40;;
28437;SDS011;15667;52.376;9.708;2023-03-12T10:04:12;7.43;;;2.42;;
28437;SDS011;15667;52.376;9.708;2023-03-12T10:07:06;5.32;;;2.10;;
28437;SDS011;15667;52.376;9.708;2023-03-12T10:29:23;8.32;;;2.60;;
28437;SDS011;15667;52.376;9.708;2023-03-12T10:34:51;7.75;;;2.25;;
28437;SDS011;15667;52.376;9.708;2023-03-12T10:37:35;5.28;;;2.30;;
28437;SDS011;15667;52.376;9.708;2023-03-12T10:40:11;8.93;;;2.50;;
28437;SDS011;15667;52.376;9.708;2023-03-12T10:42:43;5.90;;;2.20;;
28437;SDS011;15667;52.376;9.708;2023-03-12T10:45:13;9.07;;;2.63;;
28437;SDS011;15667;52.376;9.708;2023-03-12T10:47:51;7.77;;;2.57;;
28437;SDS011;15667;52.376;9.708;2023-03-12T10:50:27;5.97;;;2.60;;
28437;SDS011;15667;52.376;9.708;2023-03-12T10:55:59;6.83;;;2.70;;
28437;SDS011;15667;52.376;9.708;2023-03-12T10:58:33;8.00;;;2.80;;
28437;SDS011;15667;52.376;9.708;2023-03-12T11:01:00;8.63;;;2.77;;
28437;SDS011;15667;52.376;9.708;2023-03-12T11:03:27;6.20;;;2.53;;
28437;SDS011;15667;52.376;9.708;2023-03-12T11:06:01;8.18;;;2.75;;
28437;SDS011;15667;52.376;9.708;2023-03-12T11:08:34;5.68;;;2.40;;
28437;SDS011;15667;52.376;9.708;2023-03-12T11:11:01;8.23;;;2.70;;
28437;SDS011;15667;52.376;9.708;2023-03-12T11:16:01;10.18;;;3.30;;
28437;SDS011;15667;52.376;9.708;2023-03-12T11:19:02;10.07;;;3.40;;
28437;SDS011;15667;52.376;9.708;2023-03-12T11:21:29;9.48;;;3.42;;
28437;SDS011;15667;52.376;9.708;2023-03-12T11:29:33;10.98;;;3.28;;
28437;SDS011;15667;52.376;9.708;2023-03-12T11:32:19;9.70;;;3.88;;
28437;SDS011;15667;52.376;9.708;2023-03-12T11:34:48;12.73;;;4.22;;
28437;SDS011;15667;52.376;9.708;2023-03-12T11:47:31;8.50;;;4.15;;
28437;SDS011;15667;52.376;9.708;2023-03-12T11:50:02;8.98;;;3.80;;
28437;SDS011;15667;52.376;9.708;2023-03-12T11:55:11;12.18;;;4.10;;
28437;SDS011;15667;52.376;9.708;2023-03-12T12:01:04;11.80;;;4.43;;
28437;SDS011;15667;52.376;9.708;2023-03-12T12:03:54;11.57;;;5.03;;
28437;SDS011;15667;52.376;9.708;2023-03-12T12:38:31;13.10;;;6.43;;
28437;SDS011;15667;52.376;9.708;2023-03-12T12:41:22;11.95;;;5.93;;
28437;SDS011;15667;52.376;9.708;2023-03-12T12:43:56;11.68;;;5.50;;
28437;SDS011;15667;52.376;9.708;2023-03-12T12:46:29;16.23;;;6.43;;
28437;SDS011;15667;52.376;9.708;2023-03-12T12:49:02;10.40;;;5.40;;
28437;SDS011;15667;52.376;9.708;2023-03-12T12:51:32;11.85;;;5.90;;
28437;SDS011;15667;52.376;9.708;2023-03-12T12:56:37;12.15;;;6.00;;
28437;SDS011;15667;52.376;9.708;2023-03-12T13:01:32;16.40;;;7.65;;
28437;SDS011;15667;52.376;9.708;2023-03-12T13:04:04;18.75;;;7.72;;
28437;SDS011;15667;52.376;9.708;2023-03-12T13:09:20;13.15;;;6.68;;
28437;SDS011;15667;52.376;9.708;2023-03-12T13:11:47;15.68;;;6.95;;
28437;SDS011;15667;52.376;9.708;2023-03-12T13:20:11;15.05;;;6.80;;
28437;SDS011;15667;52.376;9.708;2023-03-12T13:46:25;13.43;;;6.70;;
28437;SDS011;15667;52.376;9.708;2023-03-12T13:48:56;14.18;;;7.07;;
28437;SDS011;15667;52.376;9.708;2023-03-12T13:51:28;14.23;;;7.25;;
28437;SDS011;15667;52.376;9.708;2023-03-12T13:57:33;15.20;;;7.63;;
28437;SDS011;15667;52.376;9.708;2023-03-12T14:00:05;14.60;;;7.10;;
28437;SDS011;15667;52.376;9.708;2023-03-12T14:02:33;12.52;;;7.60;;
28437;SDS011;15667;52.376;9.708;2023-03-12T14:05:09;11.38;;;6.88;;
28437;SDS011;15667;52.376;9.708;2023-03-12T14:10:37;13.25;;;7.03;;
28437;SDS011;15667;52.376;9.708;2023-03-12T14:13:26;10.30;;;6.73;;
28437;SDS011;15667;52.376;9.708;2023-03-12T14:16:39;9.75;;;6.57;;
28437;SDS011;15667;52.376;9.708;2023-03-12T14:19:32;9.55;;;6.40;;
28437;SDS011;15667;52.376;9.708;2023-03-12T14:22:03;10.68;;;6.32;;
28437;SDS011;15667;52.376;9.708;2023-03-12T14:24:41;10.90;;;6.50;;
28437;SDS011;15667;52.376;9.708;2023-03-12T14:27:28;9.50;;;5.80;;
28437;SDS011;15667;52.376;9.708;2023-03-12T14:29:56;10.43;;;6.65;;
28437;SDS011;15667;52.376;9.708;2023-03-12T14:32:28;10.10;;;6.18;;
28437;SDS011;15667;52.376;9.708;2023-03-12T14:35:07;8.82;;;5.90;;
28437;SDS011;15667;52.376;9.708;2023-03-12T14:37:45;8.43;;;5.80;;
28437;SDS011;15667;52.376;9.708;2023-03-12T14:41:02;9.50;;;6.20;;
28437;SDS011;15667;52.376;9.708;2023-03-12T14:43:45;9.45;;;6.18;;
28437;SDS011;15667;52.376;9.708;2023-03-12T14:46:19;7.78;;;5.88;;
28437;SDS011;15667;52.376;9.708;2023-03-12T14:48:47;9.43;;;6.63;;
28437;SDS011;15667;52.376;9.708;2023-03-12T14:51:25;10.32;;;6.60;;
28437;SDS011;15667;52.376;9.708;2023-03-12T14:53:51;9.77;;;6.30;;
28437;SDS011;15667;52.376;9.708;2023-03-12T14:56:25;11.43;;;6.18;;
28437;SDS011;15667;52.376;9.708;2023-03-12T14:58:53;9.15;;;6.07;;
28437;SDS011;15667;52.376;9.708;2023-03-12T15:01:20;9.20;;;6.05;;
28437;SDS011;15667;52.376;9.708;2023-03-12T15:03:49;7.55;;;5.30;;
28437;SDS011;15667;52.376;9.708;2023-03-12T15:06:39;8.82;;;5.80;;
28437;SDS011;15667;52.376;9.708;2023-03-12T15:09:15;7.57;;;5.20;;
28437;SDS011;15667;52.376;9.708;2023-03-12T15:12:33;7.47;;;4.82;;
28437;SDS011;15667;52.376;9.708;2023-03-12T15:14:46;8.10;;;5.15;;
28437;SDS011;15667;52.376;9.708;2023-03-12T15:17:15;6.05;;;5.32;;
28437;SDS011;15667;52.376;9.708;2023-03-12T15:19:42;7.50;;;5.33;;
28437;SDS011;15667;52.376;9.708;2023-03-12T15:22:18;7.88;;;5.95;;
28437;SDS011;15667;52.376;9.708;2023-03-12T15:24:47;10.60;;;6.40;;
28437;SDS011;15667;52.376;9.708;2023-03-12T15:29:55;10.50;;;6.32;;
28437;SDS011;15667;52.376;9.708;2023-03-12T15:32:22;9.70;;;6.35;;
28437;SDS011;15667;52.376;9.708;2023-03-12T15:34:50;8.57;;;6.40;;
28437;SDS011;15667;52.376;9.708;2023-03-12T15:37:25;10.38;;;7.40;;
28437;SDS011;15667;52.376;9.708;2023-03-12T15:42:50;11.23;;;7.63;;
28437;SDS011;15667;52.376;9.708;2023-03-12T15:45:22;12.25;;;6.95;;
28437;SDS011;15667;52.376;9.708;2023-03-12T15:47:58;13.65;;;7.47;;
28437;SDS011;15667;52.376;9.708;2023-03-12T15:50:46;10.60;;;6.97;;
28437;SDS011;15667;52.376;9.708;2023-03-12T15:55:36;14.83;;;8.10;;
28437;SDS011;15667;52.376;9.708;2023-03-12T15:58:21;12.80;;;8.00;;
28437;SDS011;15667;52.376;9.708;2023-03-12T16:00:53;12.50;;;8.17;;
28437;SDS011;15667;52.376;9.708;2023-03-12T16:03:29;13.00;;;8.45;;
28437;SDS011;15667;52.376;9.708;2023-03-12T16:05:55;15.80;;;9.02;;
28437;SDS011;15667;52.376;9.708;2023-03-12T16:09:04;23.75;;;12.65;;
28437;SDS011;15667;52.376;9.708;2023-03-12T16:11:18;23.50;;;12.07;;
28437;SDS011;15667;52.376;9.708;2023-03-12T16:13:45;21.35;;;10.48;;
28437;SDS011;15667;52.376;9.708;2023-03-12T16:16:13;20.38;;;11.32;;
28437;SDS011;15667;52.376;9.708;2023-03-12T16:18:39;21.88;;;12.48;;
28437;SDS011;15667;52.376;9.708;2023-03-12T16:21:05;18.73;;;11.02;;
28437;SDS011;15667;52.376;9.708;2023-03-12T16:23:32;22.40;;;11.55;;
28437;SDS011;15667;52.376;9.708;2023-03-12T16:25:58;20.33;;;11.98;;
28437;SDS011;15667;52.376;9.708;2023-03-12T16:28:24;21.43;;;12.20;;
28437;SDS011;15667;52.376;9.708;2023-03-12T16:30:51;20.58;;;11.68;;
28437;SDS011;15667;52.376;9.708;2023-03-12T16:33:19;23.03;;;12.23;;
28437;SDS011;15667;52.376;9.708;2023-03-12T16:35:47;21.05;;;11.15;;
28437;SDS011;15667;52.376;9.708;2023-03-12T16:38:13;18.70;;;10.45;;
28437;SDS011;15667;52.376;9.708;2023-03-12T16:40:42;22.80;;;11.75;;
28437;SDS011;15667;52.376;9.708;2023-03-12T16:43:12;21.17;;;11.00;;
28437;SDS011;15667;52.376;9.708;2023-03-12T16:45:41;21.95;;;10.75;;
28437;SDS011;15667;52.376;9.708;2023-03-12T16:48:10;19.45;;;10.90;;
28437;SDS011;15667;52.376;9.708;2023-03-12T16:50:38;18.85;;;10.48;;
28437;SDS011;15667;52.376;9.708;2023-03-12T16:53:04;20.27;;;11.18;;
28437;SDS011;15667;52.376;9.708;2023-03-12T16:55:38;20.40;;;11.88;;
28437;SDS011;15667;52.376;9.708;2023-03-12T16:58:15;21.77;;;11.45;;
28437;SDS011;15667;52.376;9.708;2023-03-12T17:00:45;20.02;;;10.80;;
28437;SDS011;15667;52.376;9.708;2023-03-12T17:05:44;19.27;;;10.90;;
28437;SDS011;15667;52.376;9.708;2023-03-12T17:08:10;19.20;;;10.90;;
28437;SDS011;15667;52.376;9.708;2023-03-12T17:10:36;23.95;;;12.43;;
28437;SDS011;15667;52.376;9.708;2023-03-12T17:13:02;21.20;;;12.00;;